sensor_id;sensor_type;location;lat;lon;timestamp;P1;durP1;ratioP1;P2;durP2;ratioP2
16127;SDS011;8168;49.036;7.690;2023-01-15T00:00:37;0.40;;;0.30;;
16127;SDS011;8168;49.036;7.690;2023-01-15T00:03:07;0.30;;;0.30;;
16127;SDS011;8168;49.036;7.690;2023-01-15T00:05:38;0.30;;;0.30;;
16127;SDS011;8168;49.036;7.690;2023-01-15T00:08:08;0.20;;;0.20;;
16127;SDS011;8168;49.036;7.690;2023-01-15T00:10:39;0.57;;;0.37;;
16127;SDS011;8168;49.036;7.690;2023-01-15T00:13:10;0.20;;;0.20;;
16127;SDS011;8168;49.036;7.690;2023-01-15T00:15:41;0.60;;;0.30;;
16127;SDS011;8168;49.036;7.690;2023-01-15T00:18:11;0.50;;;0.30;;
16127;SDS011;8168;49.036;7.690;2023-01-15T00:20:42;0.27;;;0.27;;
16127;SDS011;8168;49.036;7.690;2023-01-15T00:23:13;0.10;;;0.10;;
16127;SDS011;8168;49.036;7.690;2023-01-15T00:26:03;0.27;;;0.23;;
16127;SDS011;8168;49.036;7.690;2023-01-15T00:28:52;0.40;;;0.40;;
16127;SDS011;8168;49.036;7.690;2023-01-15T00:31:23;1.67;;;0.30;;
16127;SDS011;8168;49.036;7.690;2023-01-15T00:33:54;0.20;;;0.20;;
16127;SDS011;8168;49.036;7.690;2023-01-15T00:36:24;0.20;;;0.20;;
16127;SDS011;8168;49.036;7.690;2023-01-15T00:38:55;0.20;;;0.20;;
16127;SDS011;8168;49.036;7.690;2023-01-15T00:41:26;0.20;;;0.20;;
16127;SDS011;8168;49.036;7.690;2023-01-15T00:43:56;0.13;;;0.13;;
16127;SDS011;8168;49.036;7.690;2023-01-15T00:46:27;0.37;;;0.30;;
16127;SDS011;8168;49.036;7.690;2023-01-15T00:48:58;0.20;;;0.20;;
16127;SDS011;8168;49.036;7.690;2023-01-15T00:51:28;0.33;;;0.33;;
16127;SDS011;8168;49.036;7.690;2023-01-15T00:53:59;1.17;;;0.20;;
16127;SDS011;8168;49.036;7.690;2023-01-15T00:56:30;0.97;;;0.40;;
16127;SDS011;8168;49.036;7.690;2023-01-15T00:59:02;0.10;;;0.10;;
16127;SDS011;8168;49.036;7.690;2023-01-15T01:01:33;0.20;;;0.20;;
16127;SDS011;8168;49.036;7.690;2023-01-15T01:04:04;0.13;;;0.13;;
16127;SDS011;8168;49.036;7.690;2023-01-15T01:06:35;0.10;;;0.10;;
16127;SDS011;8168;49.036;7.690;2023-01-15T01:09:06;0.10;;;0.10;;
16127;SDS011;8168;49.036;7.690;2023-01-15T01:11:36;0.30;;;0.20;;
16127;SDS011;8168;49.036;7.690;2023-01-15T01:14:08;0.00;;;0.00;;
16127;SDS011;8168;49.036;7.690;2023-01-15T01:16:40;0.10;;;0.10;;
16127;SDS011;8168;49.036;7.690;2023-01-15T01:19:12;0.40;;;0.30;;
16127;SDS011;8168;49.036;7.690;2023-01-15T01:21:48;0.20;;;0.20;;
16127;SDS011;8168;49.036;7.690;2023-01-15T01:24:20;0.13;;;0.13;;
16127;SDS011;8168;49.036;7.690;2023-01-15T01:26:52;0.10;;;0.10;;
16127;SDS011;8168;49.036;7.690;2023-01-15T01:29:22;0.00;;;0.00;;
16127;SDS011;8168;49.036;7.690;2023-01-15T01:31:54;0.20;;;0.20;;
16127;SDS011;8168;49.036;7.690;2023-01-15T01:34:24;0.20;;;0.20;;
16127;SDS011;8168;49.036;7.690;2023-01-15T01:36:55;0.20;;;0.20;;
16127;SDS011;8168;49.036;7.690;2023-01-15T01:39:27;0.10;;;0.10;;
16127;SDS011;8168;49.036;7.690;2023-01-15T01:41:57;0.10;;;0.10;;
16127;SDS011;8168;49.036;7.690;2023-01-15T01:47:02;0.40;;;0.40;;
16127;SDS011;8168;49.036;7.690;2023-01-15T01:49:36;0.20;;;0.17;;
16127;SDS011;8168;49.036;7.690;2023-01-15T01:52:14;0.20;;;0.20;;
16127;SDS011;8168;49.036;7.690;2023-01-15T01:54:49;0.10;;;0.10;;
16127;SDS011;8168;49.036;7.690;2023-01-15T01:57:20;0.17;;;0.17;;
16127;SDS011;8168;49.036;7.690;2023-01-15T01:59:52;0.20;;;0.20;;
16127;SDS011;8168;49.036;7.690;2023-01-15T02:02:25;2.10;;;0.33;;
16127;SDS011;8168;49.036;7.690;2023-01-15T02:04:57;0.20;;;0.20;;
16127;SDS011;8168;49.036;7.690;2023-01-15T02:07:28;0.20;;;0.20;;
16127;SDS011;8168;49.036;7.690;2023-01-15T02:10:02;0.63;;;0.00;;
16127;SDS011;8168;49.036;7.690;2023-01-15T02:12:34;0.40;;;0.40;;
16127;SDS011;8168;49.036;7.690;2023-01-15T02:15:13;0.20;;;0.20;;
16127;SDS011;8168;49.036;7.690;2023-01-15T02:20:40;0.10;;;0.10;;
16127;SDS011;8168;49.036;7.690;2023-01-15T02:23:28;0.30;;;0.30;;
16127;SDS011;8168;49.036;7.690;2023-01-15T02:26:04;0.17;;;0.17;;
16127;SDS011;8168;49.036;7.690;2023-01-15T02:28:56;0.20;;;0.20;;
16127;SDS011;8168;49.036;7.690;2023-01-15T02:31:30;0.20;;;0.20;;
16127;SDS011;8168;49.036;7.690;2023-01-15T02:34:07;0.20;;;0.20;;
16127;SDS011;8168;49.036;7.690;2023-01-15T02:36:43;0.80;;;0.40;;
16127;SDS011;8168;49.036;7.690;2023-01-15T02:39:17;1.63;;;0.47;;
16127;SDS011;8168;49.036;7.690;2023-01-15T02:41:50;0.47;;;0.20;;
16127;SDS011;8168;49.036;7.690;2023-01-15T02:44:24;0.10;;;0.10;;
16127;SDS011;8168;49.036;7.690;2023-01-15T02:46:57;0.03;;;0.03;;
16127;SDS011;8168;49.036;7.690;2023-01-15T02:49:28;0.20;;;0.20;;
16127;SDS011;8168;49.036;7.690;2023-01-15T02:52:16;0.10;;;0.10;;
16127;SDS011;8168;49.036;7.690;2023-01-15T02:54:57;0.10;;;0.10;;
16127;SDS011;8168;49.036;7.690;2023-01-15T02:57:32;0.10;;;0.10;;
16127;SDS011;8168;49.036;7.690;2023-01-15T03:00:08;0.20;;;0.20;;
16127;SDS011;8168;49.036;7.690;2023-01-15T03:02:46;0.23;;;0.13;;
16127;SDS011;8168;49.036;7.690;2023-01-15T03:05:32;0.17;;;0.17;;
16127;SDS011;8168;49.036;7.690;2023-01-15T03:08:08;0.13;;;0.13;;
16127;SDS011;8168;49.036;7.690;2023-01-15T03:10:55;0.10;;;0.10;;
16127;SDS011;8168;49.036;7.690;2023-01-15T03:14:19;0.20;;;0.10;;
16127;SDS011;8168;49.036;7.690;2023-01-15T03:16:39;0.10;;;0.10;;
16127;SDS011;8168;49.036;7.690;2023-01-15T03:19:26;1.13;;;0.17;;
16127;SDS011;8168;49.036;7.690;2023-01-15T03:22:31;0.00;;;0.00;;
16127;SDS011;8168;49.036;7.690;2023-01-15T03:27:38;0.40;;;0.20;;
16127;SDS011;8168;49.036;7.690;2023-01-15T03:30:11;0.10;;;0.10;;
16127;SDS011;8168;49.036;7.690;2023-01-15T03:32:49;0.07;;;0.07;;
16127;SDS011;8168;49.036;7.690;2023-01-15T03:38:16;3.03;;;0.20;;
16127;SDS011;8168;49.036;7.690;2023-01-15T03:52:15;0.10;;;0.10;;
16127;SDS011;8168;49.036;7.690;2023-01-15T03:55:04;0.13;;;0.13;;
16127;SDS011;8168;49.036;7.690;2023-01-15T04:03:07;0.10;;;0.10;;
16127;SDS011;8168;49.036;7.690;2023-01-15T04:05:40;0.13;;;0.13;;
16127;SDS011;8168;49.036;7.690;2023-01-15T04:08:12;0.10;;;0.10;;
16127;SDS011;8168;49.036;7.690;2023-01-15T04:10:50;0.10;;;0.10;;
16127;SDS011;8168;49.036;7.690;2023-01-15T04:13:22;0.20;;;0.20;;
16127;SDS011;8168;49.036;7.690;2023-01-15T04:15:53;0.20;;;0.20;;
16127;SDS011;8168;49.036;7.690;2023-01-15T04:18:24;0.17;;;0.10;;
16127;SDS011;8168;49.036;7.690;2023-01-15T04:20:55;0.10;;;0.10;;
16127;SDS011;8168;49.036;7.690;2023-01-15T04:23:26;0.10;;;0.10;;
16127;SDS011;8168;49.036;7.690;2023-01-15T04:25:57;0.37;;;0.20;;
16127;SDS011;8168;49.036;7.690;2023-01-15T04:28:27;0.00;;;0.00;;
16127;SDS011;8168;49.036;7.690;2023-01-15T04:30:58;0.20;;;0.20;;
16127;SDS011;8168;49.036;7.690;2023-01-15T04:33:29;0.10;;;0.10;;
16127;SDS011;8168;49.036;7.690;2023-01-15T04:36:00;0.10;;;0.10;;
16127;SDS011;8168;49.036;7.690;2023-01-15T04:38:31;0.10;;;0.10;;
16127;SDS011;8168;49.036;7.690;2023-01-15T04:41:02;0.20;;;0.20;;
16127;SDS011;8168;49.036;7.690;2023-01-15T04:43:53;0.10;;;0.10;;
16127;SDS011;8168;49.036;7.690;2023-01-15T04:46:39;0.10;;;0.10;;
16127;SDS011;8168;49.036;7.690;2023-01-15T04:49:13;0.47;;;0.20;;
16127;SDS011;8168;49.036;7.690;2023-01-15T04:51:45;0.20;;;0.20;;
16127;SDS011;8168;49.036;7.690;2023-01-15T04:54:16;0.10;;;0.10;;
16127;SDS011;8168;49.036;7.690;2023-01-15T04:56:49;0.10;;;0.10;;
16127;SDS011;8168;49.036;7.690;2023-01-15T04:59:22;0.20;;;0.20;;
16127;SDS011;8168;49.036;7.690;2023-01-15T05:01:54;0.30;;;0.20;;
16127;SDS011;8168;49.036;7.690;2023-01-15T05:04:25;0.20;;;0.20;;
16127;SDS011;8168;49.036;7.690;2023-01-15T05:06:56;0.30;;;0.20;;
16127;SDS011;8168;49.036;7.690;2023-01-15T05:09:26;0.10;;;0.10;;
16127;SDS011;8168;49.036;7.690;2023-01-15T05:11:57;0.10;;;0.10;;
16127;SDS011;8168;49.036;7.690;2023-01-15T05:14:28;0.30;;;0.30;;
16127;SDS011;8168;49.036;7.690;2023-01-15T05:16:58;0.10;;;0.10;;
16127;SDS011;8168;49.036;7.690;2023-01-15T05:19:29;0.17;;;0.10;;
16127;SDS011;8168;49.036;7.690;2023-01-15T05:21:59;0.10;;;0.10;;
16127;SDS011;8168;49.036;7.690;2023-01-15T05:24:30;0.20;;;0.20;;
16127;SDS011;8168;49.036;7.690;2023-01-15T05:27:01;0.20;;;0.20;;
16127;SDS011;8168;49.036;7.690;2023-01-15T05:29:34;0.10;;;0.10;;
16127;SDS011;8168;49.036;7.690;2023-01-15T05:32:05;0.10;;;0.10;;
16127;SDS011;8168;49.036;7.690;2023-01-15T05:34:35;0.10;;;0.10;;
16127;SDS011;8168;49.036;7.690;2023-01-15T05:37:06;0.27;;;0.27;;
16127;SDS011;8168;49.036;7.690;2023-01-15T05:39:37;0.20;;;0.20;;
16127;SDS011;8168;49.036;7.690;2023-01-15T05:42:07;0.20;;;0.20;;
16127;SDS011;8168;49.036;7.690;2023-01-15T05:44:38;0.63;;;0.30;;
16127;SDS011;8168;49.036;7.690;2023-01-15T05:47:09;0.10;;;0.10;;
16127;SDS011;8168;49.036;7.690;2023-01-15T05:49:40;0.10;;;0.10;;
16127;SDS011;8168;49.036;7.690;2023-01-15T05:52:10;0.20;;;0.20;;
16127;SDS011;8168;49.036;7.690;2023-01-15T05:54:41;0.20;;;0.20;;
16127;SDS011;8168;49.036;7.690;2023-01-15T05:57:11;1.10;;;0.20;;
16127;SDS011;8168;49.036;7.690;2023-01-15T05:59:42;0.23;;;0.23;;
16127;SDS011;8168;49.036;7.690;2023-01-15T06:02:13;0.33;;;0.20;;
16127;SDS011;8168;49.036;7.690;2023-01-15T06:04:43;0.20;;;0.20;;
16127;SDS011;8168;49.036;7.690;2023-01-15T06:07:14;0.83;;;0.30;;
16127;SDS011;8168;49.036;7.690;2023-01-15T06:09:47;0.30;;;0.30;;
16127;SDS011;8168;49.036;7.690;2023-01-15T06:12:17;0.30;;;0.30;;
16127;SDS011;8168;49.036;7.690;2023-01-15T06:14:48;0.70;;;0.37;;
16127;SDS011;8168;49.036;7.690;2023-01-15T06:17:18;0.20;;;0.20;;
16127;SDS011;8168;49.036;7.690;2023-01-15T06:19:49;1.70;;;0.27;;
16127;SDS011;8168;49.036;7.690;2023-01-15T06:22:20;0.23;;;0.23;;
16127;SDS011;8168;49.036;7.690;2023-01-15T06:24:50;1.50;;;0.20;;
16127;SDS011;8168;49.036;7.690;2023-01-15T06:27:21;0.70;;;0.20;;
16127;SDS011;8168;49.036;7.690;2023-01-15T06:29:55;0.10;;;0.10;;
16127;SDS011;8168;49.036;7.690;2023-01-15T06:32:27;0.10;;;0.10;;
16127;SDS011;8168;49.036;7.690;2023-01-15T06:34:58;0.20;;;0.20;;
16127;SDS011;8168;49.036;7.690;2023-01-15T06:37:29;0.40;;;0.40;;
16127;SDS011;8168;49.036;7.690;2023-01-15T06:39:59;0.10;;;0.10;;
16127;SDS011;8168;49.036;7.690;2023-01-15T06:42:30;0.10;;;0.10;;
16127;SDS011;8168;49.036;7.690;2023-01-15T06:45:19;0.10;;;0.10;;
16127;SDS011;8168;49.036;7.690;2023-01-15T06:48:08;0.20;;;0.20;;
16127;SDS011;8168;49.036;7.690;2023-01-15T06:50:39;0.57;;;0.40;;
16127;SDS011;8168;49.036;7.690;2023-01-15T06:53:10;0.37;;;0.37;;
16127;SDS011;8168;49.036;7.690;2023-01-15T06:55:40;0.20;;;0.20;;
16127;SDS011;8168;49.036;7.690;2023-01-15T06:58:11;0.20;;;0.20;;
16127;SDS011;8168;49.036;7.690;2023-01-15T07:00:42;0.20;;;0.20;;
16127;SDS011;8168;49.036;7.690;2023-01-15T07:03:14;0.13;;;0.13;;
16127;SDS011;8168;49.036;7.690;2023-01-15T07:05:44;0.10;;;0.10;;
16127;SDS011;8168;49.036;7.690;2023-01-15T07:08:15;0.10;;;0.10;;
16127;SDS011;8168;49.036;7.690;2023-01-15T07:10:46;0.20;;;0.20;;
16127;SDS011;8168;49.036;7.690;2023-01-15T07:13:17;0.10;;;0.10;;
16127;SDS011;8168;49.036;7.690;2023-01-15T07:15:47;0.40;;;0.27;;
16127;SDS011;8168;49.036;7.690;2023-01-15T07:18:18;0.67;;;0.47;;
16127;SDS011;8168;49.036;7.690;2023-01-15T07:20:52;0.23;;;0.20;;
16127;SDS011;8168;49.036;7.690;2023-01-15T07:23:24;0.80;;;0.40;;
16127;SDS011;8168;49.036;7.690;2023-01-15T07:25:55;0.20;;;0.10;;
16127;SDS011;8168;49.036;7.690;2023-01-15T07:28:26;0.10;;;0.10;;
16127;SDS011;8168;49.036;7.690;2023-01-15T07:30:57;0.20;;;0.17;;
16127;SDS011;8168;49.036;7.690;2023-01-15T07:33:27;0.20;;;0.20;;
16127;SDS011;8168;49.036;7.690;2023-01-15T07:36:02;0.10;;;0.10;;
16127;SDS011;8168;49.036;7.690;2023-01-15T07:38:33;0.10;;;0.10;;
16127;SDS011;8168;49.036;7.690;2023-01-15T07:41:04;0.20;;;0.20;;
16127;SDS011;8168;49.036;7.690;2023-01-15T07:43:53;0.20;;;0.20;;
16127;SDS011;8168;49.036;7.690;2023-01-15T07:46:42;0.27;;;0.27;;
16127;SDS011;8168;49.036;7.690;2023-01-15T07:49:32;1.10;;;0.47;;
16127;SDS011;8168;49.036;7.690;2023-01-15T07:52:18;0.10;;;0.10;;
16127;SDS011;8168;49.036;7.690;2023-01-15T07:54:50;0.10;;;0.10;;
16127;SDS011;8168;49.036;7.690;2023-01-15T07:57:21;0.30;;;0.30;;
16127;SDS011;8168;49.036;7.690;2023-01-15T07:59:52;0.20;;;0.20;;
16127;SDS011;8168;49.036;7.690;2023-01-15T08:02:22;0.37;;;0.20;;
16127;SDS011;8168;49.036;7.690;2023-01-15T08:04:53;0.10;;;0.10;;
16127;SDS011;8168;49.036;7.690;2023-01-15T08:07:24;0.13;;;0.13;;
16127;SDS011;8168;49.036;7.690;2023-01-15T08:09:55;0.20;;;0.20;;
16127;SDS011;8168;49.036;7.690;2023-01-15T08:12:26;0.43;;;0.40;;
16127;SDS011;8168;49.036;7.690;2023-01-15T08:15:15;0.10;;;0.10;;
16127;SDS011;8168;49.036;7.690;2023-01-15T08:17:47;1.33;;;0.30;;
16127;SDS011;8168;49.036;7.690;2023-01-15T08:20:22;0.57;;;0.20;;
16127;SDS011;8168;49.036;7.690;2023-01-15T08:22:54;0.13;;;0.13;;
16127;SDS011;8168;49.036;7.690;2023-01-15T08:25:25;0.20;;;0.20;;
16127;SDS011;8168;49.036;7.690;2023-01-15T08:27:59;0.23;;;0.20;;
16127;SDS011;8168;49.036;7.690;2023-01-15T08:30:32;0.20;;;0.20;;
16127;SDS011;8168;49.036;7.690;2023-01-15T08:33:02;1.33;;;0.50;;
16127;SDS011;8168;49.036;7.690;2023-01-15T08:35:33;3.90;;;0.47;;
16127;SDS011;8168;49.036;7.690;2023-01-15T08:38:04;0.30;;;0.30;;
16127;SDS011;8168;49.036;7.690;2023-01-15T08:40:36;0.20;;;0.20;;
16127;SDS011;8168;49.036;7.690;2023-01-15T08:43:27;0.57;;;0.57;;
16127;SDS011;8168;49.036;7.690;2023-01-15T08:46:00;1.23;;;0.30;;
16127;SDS011;8168;49.036;7.690;2023-01-15T08:48:32;0.20;;;0.20;;
16127;SDS011;8168;49.036;7.690;2023-01-15T08:51:05;0.47;;;0.40;;
16127;SDS011;8168;49.036;7.690;2023-01-15T08:53:37;0.33;;;0.30;;
16127;SDS011;8168;49.036;7.690;2023-01-15T08:56:13;0.30;;;0.30;;
16127;SDS011;8168;49.036;7.690;2023-01-15T08:58:45;0.70;;;0.50;;
16127;SDS011;8168;49.036;7.690;2023-01-15T09:01:17;0.50;;;0.50;;
16127;SDS011;8168;49.036;7.690;2023-01-15T09:03:48;0.20;;;0.20;;
16127;SDS011;8168;49.036;7.690;2023-01-15T09:06:19;0.60;;;0.30;;
16127;SDS011;8168;49.036;7.690;2023-01-15T09:08:49;0.30;;;0.20;;
16127;SDS011;8168;49.036;7.690;2023-01-15T09:11:20;0.43;;;0.43;;
16127;SDS011;8168;49.036;7.690;2023-01-15T09:13:50;0.37;;;0.37;;
16127;SDS011;8168;49.036;7.690;2023-01-15T09:16:22;0.20;;;0.13;;
16127;SDS011;8168;49.036;7.690;2023-01-15T09:18:56;0.30;;;0.30;;
16127;SDS011;8168;49.036;7.690;2023-01-15T09:21:27;1.07;;;0.40;;
16127;SDS011;8168;49.036;7.690;2023-01-15T09:23:58;0.10;;;0.10;;
16127;SDS011;8168;49.036;7.690;2023-01-15T09:26:30;0.50;;;0.30;;
16127;SDS011;8168;49.036;7.690;2023-01-15T09:29:04;0.57;;;0.30;;
16127;SDS011;8168;49.036;7.690;2023-01-15T09:31:35;0.13;;;0.13;;
16127;SDS011;8168;49.036;7.690;2023-01-15T09:34:06;2.20;;;0.40;;
16127;SDS011;8168;49.036;7.690;2023-01-15T09:36:37;0.40;;;0.13;;
16127;SDS011;8168;49.036;7.690;2023-01-15T09:39:08;0.20;;;0.20;;
16127;SDS011;8168;49.036;7.690;2023-01-15T09:45:02;0.10;;;0.10;;
16127;SDS011;8168;49.036;7.690;2023-01-15T09:47:45;0.30;;;0.30;;
16127;SDS011;8168;49.036;7.690;2023-01-15T09:50:30;0.20;;;0.20;;
16127;SDS011;8168;49.036;7.690;2023-01-15T09:53:21;0.50;;;0.47;;
16127;SDS011;8168;49.036;7.690;2023-01-15T09:56:19;0.63;;;0.50;;
16127;SDS011;8168;49.036;7.690;2023-01-15T09:58:55;2.00;;;1.00;;
16127;SDS011;8168;49.036;7.690;2023-01-15T10:01:29;0.40;;;0.40;;
16127;SDS011;8168;49.036;7.690;2023-01-15T10:06:47;0.73;;;0.30;;
16127;SDS011;8168;49.036;7.690;2023-01-15T10:09:30;0.10;;;0.10;;
16127;SDS011;8168;49.036;7.690;2023-01-15T10:12:17;0.10;;;0.10;;
16127;SDS011;8168;49.036;7.690;2023-01-15T10:17:43;0.20;;;0.20;;
16127;SDS011;8168;49.036;7.690;2023-01-15T10:23:34;0.20;;;0.20;;
16127;SDS011;8168;49.036;7.690;2023-01-15T10:28:59;0.10;;;0.10;;
16127;SDS011;8168;49.036;7.690;2023-01-15T10:37:34;0.30;;;0.30;;
16127;SDS011;8168;49.036;7.690;2023-01-15T10:45:27;0.20;;;0.20;;
16127;SDS011;8168;49.036;7.690;2023-01-15T10:51:01;0.23;;;0.17;;
16127;SDS011;8168;49.036;7.690;2023-01-15T10:53:41;0.67;;;0.40;;
16127;SDS011;8168;49.036;7.690;2023-01-15T10:59:19;0.47;;;0.30;;
16127;SDS011;8168;49.036;7.690;2023-01-15T11:02:02;0.30;;;0.20;;
16127;SDS011;8168;49.036;7.690;2023-01-15T11:04:49;4.60;;;0.30;;
16127;SDS011;8168;49.036;7.690;2023-01-15T11:07:21;1.17;;;0.70;;
16127;SDS011;8168;49.036;7.690;2023-01-15T11:09:59;0.40;;;0.40;;
16127;SDS011;8168;49.036;7.690;2023-01-15T11:12:33;0.40;;;0.40;;
16127;SDS011;8168;49.036;7.690;2023-01-15T11:15:23;0.33;;;0.30;;
16127;SDS011;8168;49.036;7.690;2023-01-15T11:18:23;1.60;;;0.10;;
16127;SDS011;8168;49.036;7.690;2023-01-15T11:21:18;0.43;;;0.43;;
16127;SDS011;8168;49.036;7.690;2023-01-15T11:23:51;0.10;;;0.10;;
16127;SDS011;8168;49.036;7.690;2023-01-15T11:26:25;0.40;;;0.40;;
16127;SDS011;8168;49.036;7.690;2023-01-15T11:28:59;0.20;;;0.20;;
16127;SDS011;8168;49.036;7.690;2023-01-15T11:31:41;3.60;;;0.40;;
16127;SDS011;8168;49.036;7.690;2023-01-15T11:34:17;0.73;;;0.60;;
16127;SDS011;8168;49.036;7.690;2023-01-15T11:37:00;1.73;;;0.40;;
16127;SDS011;8168;49.036;7.690;2023-01-15T11:39:34;2.10;;;0.30;;
16127;SDS011;8168;49.036;7.690;2023-01-15T11:42:11;1.03;;;0.47;;
16127;SDS011;8168;49.036;7.690;2023-01-15T11:45:22;2.20;;;0.93;;
16127;SDS011;8168;49.036;7.690;2023-01-15T11:48:17;0.23;;;0.20;;
16127;SDS011;8168;49.036;7.690;2023-01-15T11:51:09;0.70;;;0.50;;
16127;SDS011;8168;49.036;7.690;2023-01-15T11:53:44;2.30;;;0.70;;
16127;SDS011;8168;49.036;7.690;2023-01-15T11:56:16;2.50;;;0.70;;
16127;SDS011;8168;49.036;7.690;2023-01-15T11:58:50;3.40;;;0.50;;
16127;SDS011;8168;49.036;7.690;2023-01-15T12:01:24;0.83;;;0.50;;
16127;SDS011;8168;49.036;7.690;2023-01-15T12:04:04;1.37;;;0.90;;
16127;SDS011;8168;49.036;7.690;2023-01-15T12:06:49;3.93;;;0.67;;
16127;SDS011;8168;49.036;7.690;2023-01-15T12:20:28;1.20;;;0.50;;
16127;SDS011;8168;49.036;7.690;2023-01-15T12:32:01;0.83;;;0.80;;
16127;SDS011;8168;49.036;7.690;2023-01-15T12:34:53;0.47;;;0.40;;
16127;SDS011;8168;49.036;7.690;2023-01-15T12:37:33;1.53;;;1.00;;
16127;SDS011;8168;49.036;7.690;2023-01-15T12:40:37;4.53;;;0.83;;
16127;SDS011;8168;49.036;7.690;2023-01-15T12:43:18;1.90;;;0.67;;
16127;SDS011;8168;49.036;7.690;2023-01-15T12:46:16;0.77;;;0.37;;
16127;SDS011;8168;49.036;7.690;2023-01-15T12:49:08;1.00;;;0.70;;
16127;SDS011;8168;49.036;7.690;2023-01-15T12:52:30;1.47;;;0.90;;
16127;SDS011;8168;49.036;7.690;2023-01-15T12:54:53;0.60;;;0.60;;
16127;SDS011;8168;49.036;7.690;2023-01-15T12:57:36;2.73;;;0.80;;
16127;SDS011;8168;49.036;7.690;2023-01-15T13:00:14;4.33;;;1.00;;
16127;SDS011;8168;49.036;7.690;2023-01-15T13:03:22;1.80;;;0.50;;
16127;SDS011;8168;49.036;7.690;2023-01-15T13:05:58;1.77;;;0.57;;
16127;SDS011;8168;49.036;7.690;2023-01-15T13:08:40;0.60;;;0.57;;
16127;SDS011;8168;49.036;7.690;2023-01-15T13:11:23;0.80;;;0.70;;
16127;SDS011;8168;49.036;7.690;2023-01-15T13:13:54;1.20;;;0.80;;
16127;SDS011;8168;49.036;7.690;2023-01-15T13:19:27;1.40;;;0.83;;
16127;SDS011;8168;49.036;7.690;2023-01-15T13:22:21;3.17;;;0.70;;
16127;SDS011;8168;49.036;7.690;2023-01-15T13:32:47;1.90;;;0.90;;
16127;SDS011;8168;49.036;7.690;2023-01-15T13:35:26;0.30;;;0.30;;
16127;SDS011;8168;49.036;7.690;2023-01-15T13:38:02;1.70;;;0.50;;
16127;SDS011;8168;49.036;7.690;2023-01-15T13:40:38;1.40;;;0.80;;
16127;SDS011;8168;49.036;7.690;2023-01-15T13:43:16;4.03;;;0.83;;
16127;SDS011;8168;49.036;7.690;2023-01-15T13:46:02;1.27;;;0.43;;
16127;SDS011;8168;49.036;7.690;2023-01-15T13:48:47;2.20;;;0.27;;
16127;SDS011;8168;49.036;7.690;2023-01-15T13:54:11;0.50;;;0.40;;
16127;SDS011;8168;49.036;7.690;2023-01-15T13:56:45;1.53;;;0.63;;
16127;SDS011;8168;49.036;7.690;2023-01-15T14:02:36;2.23;;;0.80;;
16127;SDS011;8168;49.036;7.690;2023-01-15T14:05:23;0.90;;;0.50;;
16127;SDS011;8168;49.036;7.690;2023-01-15T14:07:54;0.77;;;0.40;;
16127;SDS011;8168;49.036;7.690;2023-01-15T14:10:33;0.40;;;0.40;;
16127;SDS011;8168;49.036;7.690;2023-01-15T14:16:11;2.77;;;0.80;;
16127;SDS011;8168;49.036;7.690;2023-01-15T14:27:58;3.50;;;0.30;;
16127;SDS011;8168;49.036;7.690;2023-01-15T14:33:16;0.20;;;0.20;;
16127;SDS011;8168;49.036;7.690;2023-01-15T14:39:23;1.90;;;0.50;;
16127;SDS011;8168;49.036;7.690;2023-01-15T14:42:09;1.20;;;0.83;;
16127;SDS011;8168;49.036;7.690;2023-01-15T14:48:01;0.50;;;0.50;;
16127;SDS011;8168;49.036;7.690;2023-01-15T15:01:43;1.93;;;0.53;;
16127;SDS011;8168;49.036;7.690;2023-01-15T15:06:54;1.73;;;0.30;;
16127;SDS011;8168;49.036;7.690;2023-01-15T15:09:41;1.23;;;0.67;;
16127;SDS011;8168;49.036;7.690;2023-01-15T15:15:19;0.30;;;0.30;;
16127;SDS011;8168;49.036;7.690;2023-01-15T15:18:18;0.80;;;0.53;;
16127;SDS011;8168;49.036;7.690;2023-01-15T15:26:03;4.43;;;0.70;;
16127;SDS011;8168;49.036;7.690;2023-01-15T15:28:56;8.50;;;0.93;;
16127;SDS011;8168;49.036;7.690;2023-01-15T15:31:32;2.80;;;0.90;;
16127;SDS011;8168;49.036;7.690;2023-01-15T15:34:06;0.83;;;0.50;;
16127;SDS011;8168;49.036;7.690;2023-01-15T15:36:37;1.63;;;0.70;;
16127;SDS011;8168;49.036;7.690;2023-01-15T15:39:19;0.40;;;0.40;;
16127;SDS011;8168;49.036;7.690;2023-01-15T15:41:57;0.37;;;0.30;;
16127;SDS011;8168;49.036;7.690;2023-01-15T15:47:37;1.03;;;0.50;;
16127;SDS011;8168;49.036;7.690;2023-01-15T15:50:29;2.10;;;0.47;;
16127;SDS011;8168;49.036;7.690;2023-01-15T15:53:02;3.60;;;0.87;;
16127;SDS011;8168;49.036;7.690;2023-01-15T15:55:40;0.33;;;0.33;;
16127;SDS011;8168;49.036;7.690;2023-01-15T15:58:23;3.57;;;0.53;;
16127;SDS011;8168;49.036;7.690;2023-01-15T16:00:59;2.30;;;1.00;;
16127;SDS011;8168;49.036;7.690;2023-01-15T16:03:30;3.00;;;0.60;;
16127;SDS011;8168;49.036;7.690;2023-01-15T16:06:05;0.90;;;0.50;;
16127;SDS011;8168;49.036;7.690;2023-01-15T16:08:37;0.90;;;0.50;;
16127;SDS011;8168;49.036;7.690;2023-01-15T16:11:09;2.43;;;1.07;;
16127;SDS011;8168;49.036;7.690;2023-01-15T16:13:50;3.83;;;0.73;;
16127;SDS011;8168;49.036;7.690;2023-01-15T16:16:24;1.40;;;0.50;;
16127;SDS011;8168;49.036;7.690;2023-01-15T16:18:57;3.73;;;0.80;;
16127;SDS011;8168;49.036;7.690;2023-01-15T16:21:30;3.67;;;0.57;;
16127;SDS011;8168;49.036;7.690;2023-01-15T16:24:04;0.93;;;0.70;;
16127;SDS011;8168;49.036;7.690;2023-01-15T16:26:40;1.43;;;0.43;;
16127;SDS011;8168;49.036;7.690;2023-01-15T16:29:18;0.83;;;0.60;;
16127;SDS011;8168;49.036;7.690;2023-01-15T16:31:55;4.03;;;1.13;;
16127;SDS011;8168;49.036;7.690;2023-01-15T16:34:29;3.03;;;0.87;;
16127;SDS011;8168;49.036;7.690;2023-01-15T16:37:02;3.90;;;0.90;;
16127;SDS011;8168;49.036;7.690;2023-01-15T16:39:38;4.37;;;0.60;;
16127;SDS011;8168;49.036;7.690;2023-01-15T16:42:21;1.70;;;0.53;;
16127;SDS011;8168;49.036;7.690;2023-01-15T16:44:54;0.77;;;0.37;;
16127;SDS011;8168;49.036;7.690;2023-01-15T16:47:28;5.17;;;1.00;;
16127;SDS011;8168;49.036;7.690;2023-01-15T16:52:52;2.33;;;0.70;;
16127;SDS011;8168;49.036;7.690;2023-01-15T17:00:51;2.87;;;0.77;;
16127;SDS011;8168;49.036;7.690;2023-01-15T17:03:25;0.60;;;0.50;;
16127;SDS011;8168;49.036;7.690;2023-01-15T17:05:58;3.97;;;0.53;;
16127;SDS011;8168;49.036;7.690;2023-01-15T17:08:34;3.13;;;0.93;;
16127;SDS011;8168;49.036;7.690;2023-01-15T17:11:19;2.53;;;0.97;;
16127;SDS011;8168;49.036;7.690;2023-01-15T17:14:05;0.20;;;0.20;;
16127;SDS011;8168;49.036;7.690;2023-01-15T17:16:36;3.87;;;0.80;;
16127;SDS011;8168;49.036;7.690;2023-01-15T17:19:09;3.47;;;1.10;;
16127;SDS011;8168;49.036;7.690;2023-01-15T17:21:40;1.17;;;0.83;;
16127;SDS011;8168;49.036;7.690;2023-01-15T17:24:16;5.13;;;0.77;;
16127;SDS011;8168;49.036;7.690;2023-01-15T17:26:46;3.70;;;0.97;;
16127;SDS011;8168;49.036;7.690;2023-01-15T17:29:17;3.07;;;0.80;;
16127;SDS011;8168;49.036;7.690;2023-01-15T17:31:48;1.73;;;0.83;;
16127;SDS011;8168;49.036;7.690;2023-01-15T17:34:18;0.80;;;0.40;;
16127;SDS011;8168;49.036;7.690;2023-01-15T17:36:54;2.57;;;0.90;;
16127;SDS011;8168;49.036;7.690;2023-01-15T17:39:24;2.20;;;1.03;;
16127;SDS011;8168;49.036;7.690;2023-01-15T17:41:55;0.90;;;0.60;;
16127;SDS011;8168;49.036;7.690;2023-01-15T17:44:26;2.87;;;0.80;;
16127;SDS011;8168;49.036;7.690;2023-01-15T17:46:57;1.00;;;0.50;;
16127;SDS011;8168;49.036;7.690;2023-01-15T17:49:28;2.00;;;0.60;;
16127;SDS011;8168;49.036;7.690;2023-01-15T17:51:59;5.20;;;0.77;;
16127;SDS011;8168;49.036;7.690;2023-01-15T17:54:31;1.33;;;0.73;;
16127;SDS011;8168;49.036;7.690;2023-01-15T17:57:20;4.43;;;1.03;;
16127;SDS011;8168;49.036;7.690;2023-01-15T18:00:10;3.13;;;0.30;;
16127;SDS011;8168;49.036;7.690;2023-01-15T18:02:59;3.27;;;0.60;;
16127;SDS011;8168;49.036;7.690;2023-01-15T18:05:49;1.10;;;0.57;;
16127;SDS011;8168;49.036;7.690;2023-01-15T18:08:20;1.13;;;0.50;;
16127;SDS011;8168;49.036;7.690;2023-01-15T18:10:51;1.27;;;0.60;;
16127;SDS011;8168;49.036;7.690;2023-01-15T18:13:21;3.63;;;0.70;;
16127;SDS011;8168;49.036;7.690;2023-01-15T18:15:52;2.73;;;0.77;;
16127;SDS011;8168;49.036;7.690;2023-01-15T18:18:23;1.90;;;0.87;;
16127;SDS011;8168;49.036;7.690;2023-01-15T18:20:53;1.60;;;1.00;;
16127;SDS011;8168;49.036;7.690;2023-01-15T18:23:24;3.70;;;0.87;;